sensor_id;sensor_type;location;lat;lon;timestamp;temperature;humidity
26687;DHT22;14298;50.900;4.648;2022-09-28T00:01:21;8.90;73.80
26687;DHT22;14298;50.900;4.648;2022-09-28T00:03:52;8.90;74.60
26687;DHT22;14298;50.900;4.648;2022-09-28T00:06:40;9.00;75.20
26687;DHT22;14298;50.900;4.648;2022-09-28T00:09:09;9.10;75.80
26687;DHT22;14298;50.900;4.648;2022-09-28T00:11:37;9.10;76.40
26687;DHT22;14298;50.900;4.648;2022-09-28T00:14:06;9.20;76.80
26687;DHT22;14298;50.900;4.648;2022-09-28T00:16:42;9.20;77.40
26687;DHT22;14298;50.900;4.648;2022-09-28T00:19:06;9.20;77.90
26687;DHT22;14298;50.900;4.648;2022-09-28T00:21:36;9.20;78.50
26687;DHT22;14298;50.900;4.648;2022-09-28T00:24:08;9.30;79.20
26687;DHT22;14298;50.900;4.648;2022-09-28T00:26:47;9.40;79.80
26687;DHT22;14298;50.900;4.648;2022-09-28T00:32:11;9.40;81.20
26687;DHT22;14298;50.900;4.648;2022-09-28T00:34:41;9.30;82.20
26687;DHT22;14298;50.900;4.648;2022-09-28T00:37:13;9.30;83.40
26687;DHT22;14298;50.900;4.648;2022-09-28T00:40:00;9.30;84.30
26687;DHT22;14298;50.900;4.648;2022-09-28T00:42:29;9.30;85.40
26687;DHT22;14298;50.900;4.648;2022-09-28T00:44:58;9.30;86.30
26687;DHT22;14298;50.900;4.648;2022-09-28T00:47:41;9.40;87.20
26687;DHT22;14298;50.900;4.648;2022-09-28T00:50:19;9.40;88.20
26687;DHT22;14298;50.900;4.648;2022-09-28T00:53:01;9.40;89.60
26687;DHT22;14298;50.900;4.648;2022-09-28T00:55:30;9.30;82.10
26687;DHT22;14298;50.900;4.648;2022-09-28T00:58:00;9.40;83.10
26687;DHT22;14298;50.900;4.648;2022-09-28T01:00:30;9.40;84.30
26687;DHT22;14298;50.900;4.648;2022-09-28T01:02:58;9.40;85.80
26687;DHT22;14298;50.900;4.648;2022-09-28T01:05:27;9.40;87.20
26687;DHT22;14298;50.900;4.648;2022-09-28T01:07:56;9.30;89.10
26687;DHT22;14298;50.900;4.648;2022-09-28T01:10:24;9.40;90.20
26687;DHT22;14298;50.900;4.648;2022-09-28T01:12:54;9.50;91.00
26687;DHT22;14298;50.900;4.648;2022-09-28T01:15:25;9.40;92.00
26687;DHT22;14298;50.900;4.648;2022-09-28T01:20:53;9.40;94.60
26687;DHT22;14298;50.900;4.648;2022-09-28T01:23:31;9.30;96.20
26687;DHT22;14298;50.900;4.648;2022-09-28T01:26:57;9.30;97.10
26687;DHT22;14298;50.900;4.648;2022-09-28T01:28:48;9.30;97.10
26687;DHT22;14298;50.900;4.648;2022-09-28T01:31:18;9.30;97.10
26687;DHT22;14298;50.900;4.648;2022-09-28T01:34:07;9.30;97.10
26687;DHT22;14298;50.900;4.648;2022-09-28T01:36:37;9.30;97.10
26687;DHT22;14298;50.900;4.648;2022-09-28T01:39:18;9.30;97.10
26687;DHT22;14298;50.900;4.648;2022-09-28T01:41:39;9.30;97.10
26687;DHT22;14298;50.900;4.648;2022-09-28T01:44:11;9.30;97.10
26687;DHT22;14298;50.900;4.648;2022-09-28T01:46:41;9.20;97.10
26687;DHT22;14298;50.900;4.648;2022-09-28T01:49:15;9.20;97.10
26687;DHT22;14298;50.900;4.648;2022-09-28T01:52:10;9.20;97.10
26687;DHT22;14298;50.900;4.648;2022-09-28T01:54:40;9.10;97.10
26687;DHT22;14298;50.900;4.648;2022-09-28T01:57:21;9.00;97.10
26687;DHT22;14298;50.900;4.648;2022-09-28T02:00:04;9.00;97.10
26687;DHT22;14298;50.900;4.648;2022-09-28T02:02:33;9.00;97.10
26687;DHT22;14298;50.900;4.648;2022-09-28T02:05:13;8.90;97.10
26687;DHT22;14298;50.900;4.648;2022-09-28T02:07:49;8.80;97.10
26687;DHT22;14298;50.900;4.648;2022-09-28T02:18:19;8.70;97.10
26687;DHT22;14298;50.900;4.648;2022-09-28T02:20:51;8.70;97.10
26687;DHT22;14298;50.900;4.648;2022-09-28T02:23:21;8.60;97.10
26687;DHT22;14298;50.900;4.648;2022-09-28T02:25:59;8.60;97.10
26687;DHT22;14298;50.900;4.648;2022-09-28T02:28:27;8.70;97.10
26687;DHT22;14298;50.900;4.648;2022-09-28T02:30:55;8.70;97.10
26687;DHT22;14298;50.900;4.648;2022-09-28T02:33:36;8.70;97.10
26687;DHT22;14298;50.900;4.648;2022-09-28T02:35:57;8.60;97.10
26687;DHT22;14298;50.900;4.648;2022-09-28T02:38:26;8.60;97.10
26687;DHT22;14298;50.900;4.648;2022-09-28T02:41:01;8.50;97.10
26687;DHT22;14298;50.900;4.648;2022-09-28T02:43:51;8.50;97.10
26687;DHT22;14298;50.900;4.648;2022-09-28T02:46:28;8.50;97.10
26687;DHT22;14298;50.900;4.648;2022-09-28T02:49:01;8.50;97.10
26687;DHT22;14298;50.900;4.648;2022-09-28T02:51:40;8.50;97.10
26687;DHT22;14298;50.900;4.648;2022-09-28T03:00:23;8.60;97.10
26687;DHT22;14298;50.900;4.648;2022-09-28T03:03:00;8.60;97.10
26687;DHT22;14298;50.900;4.648;2022-09-28T03:05:35;8.60;97.10
26687;DHT22;14298;50.900;4.648;2022-09-28T03:08:37;8.60;97.10
26687;DHT22;14298;50.900;4.648;2022-09-28T03:11:13;8.60;97.10
26687;DHT22;14298;50.900;4.648;2022-09-28T03:13:37;8.60;97.10
26687;DHT22;14298;50.900;4.648;2022-09-28T03:18:56;8.60;97.10
26687;DHT22;14298;50.900;4.648;2022-09-28T03:21:25;8.60;97.10
26687;DHT22;14298;50.900;4.648;2022-09-28T03:23:53;8.60;97.10
26687;DHT22;14298;50.900;4.648;2022-09-28T03:26:22;8.60;97.10
26687;DHT22;14298;50.900;4.648;2022-09-28T03:28:50;8.70;97.10
26687;DHT22;14298;50.900;4.648;2022-09-28T03:31:18;8.70;97.10
26687;DHT22;14298;50.900;4.648;2022-09-28T03:33:47;8.70;97.10
26687;DHT22;14298;50.900;4.648;2022-09-28T03:36:15;8.70;97.10
26687;DHT22;14298;50.900;4.648;2022-09-28T03:38:43;8.60;97.10
26687;DHT22;14298;50.900;4.648;2022-09-28T03:41:12;8.50;97.10
26687;DHT22;14298;50.900;4.648;2022-09-28T03:43:40;8.40;97.10
26687;DHT22;14298;50.900;4.648;2022-09-28T03:46:08;8.40;97.10
26687;DHT22;14298;50.900;4.648;2022-09-28T03:48:36;8.40;97.10
26687;DHT22;14298;50.900;4.648;2022-09-28T03:51:24;8.40;97.10
26687;DHT22;14298;50.900;4.648;2022-09-28T03:53:53;8.40;97.10
26687;DHT22;14298;50.900;4.648;2022-09-28T03:56:21;8.40;97.10
26687;DHT22;14298;50.900;4.648;2022-09-28T03:58:49;8.40;97.10
26687;DHT22;14298;50.900;4.648;2022-09-28T04:01:18;8.40;97.10
26687;DHT22;14298;50.900;4.648;2022-09-28T04:03:46;8.30;97.10
26687;DHT22;14298;50.900;4.648;2022-09-28T04:06:16;8.10;97.10
26687;DHT22;14298;50.900;4.648;2022-09-28T04:08:45;8.00;97.10
26687;DHT22;14298;50.900;4.648;2022-09-28T04:11:13;7.90;97.10
26687;DHT22;14298;50.900;4.648;2022-09-28T04:13:41;7.70;97.10
26687;DHT22;14298;50.900;4.648;2022-09-28T04:16:11;7.50;97.10
26687;DHT22;14298;50.900;4.648;2022-09-28T04:18:40;7.40;97.10
26687;DHT22;14298;50.900;4.648;2022-09-28T04:21:10;7.30;97.10
26687;DHT22;14298;50.900;4.648;2022-09-28T04:23:39;7.20;97.10
26687;DHT22;14298;50.900;4.648;2022-09-28T04:26:14;7.20;97.10
26687;DHT22;14298;50.900;4.648;2022-09-28T04:28:45;7.20;97.10
26687;DHT22;14298;50.900;4.648;2022-09-28T04:31:36;7.30;97.10
26687;DHT22;14298;50.900;4.648;2022-09-28T04:34:24;7.60;97.10
26687;DHT22;14298;50.900;4.648;2022-09-28T04:36:53;7.70;97.10
26687;DHT22;14298;50.900;4.648;2022-09-28T04:39:22;7.80;97.10
26687;DHT22;14298;50.900;4.648;2022-09-28T04:41:50;7.90;97.10
26687;DHT22;14298;50.900;4.648;2022-09-28T04:44:18;7.90;97.10
26687;DHT22;14298;50.900;4.648;2022-09-28T04:46:47;7.90;97.10
26687;DHT22;14298;50.900;4.648;2022-09-28T04:49:15;7.80;97.10
26687;DHT22;14298;50.900;4.648;2022-09-28T04:51:43;7.70;97.10
26687;DHT22;14298;50.900;4.648;2022-09-28T04:54:12;7.70;97.10
26687;DHT22;14298;50.900;4.648;2022-09-28T04:56:40;7.60;97.10
26687;DHT22;14298;50.900;4.648;2022-09-28T04:59:09;7.50;97.10
26687;DHT22;14298;50.900;4.648;2022-09-28T05:01:39;7.50;97.10
26687;DHT22;14298;50.900;4.648;2022-09-28T05:04:07;7.40;97.10
26687;DHT22;14298;50.900;4.648;2022-09-28T05:06:35;7.40;97.10
26687;DHT22;14298;50.900;4.648;2022-09-28T05:09:04;7.30;97.10
26687;DHT22;14298;50.900;4.648;2022-09-28T05:11:32;7.30;97.10
26687;DHT22;14298;50.900;4.648;2022-09-28T05:14:00;7.30;97.10
26687;DHT22;14298;50.900;4.648;2022-09-28T05:16:29;7.30;97.10
26687;DHT22;14298;50.900;4.648;2022-09-28T05:18:59;7.20;97.10
26687;DHT22;14298;50.900;4.648;2022-09-28T05:21:27;7.20;97.10
26687;DHT22;14298;50.900;4.648;2022-09-28T05:23:57;7.20;97.10
26687;DHT22;14298;50.900;4.648;2022-09-28T05:26:25;7.20;97.10
26687;DHT22;14298;50.900;4.648;2022-09-28T05:28:53;7.10;97.10
26687;DHT22;14298;50.900;4.648;2022-09-28T05:31:22;7.20;97.10
26687;DHT22;14298;50.900;4.648;2022-09-28T05:33:50;7.20;97.10
26687;DHT22;14298;50.900;4.648;2022-09-28T05:36:19;7.10;97.10
26687;DHT22;14298;50.900;4.648;2022-09-28T05:38:47;7.10;97.10
26687;DHT22;14298;50.900;4.648;2022-09-28T05:41:15;7.00;97.10
26687;DHT22;14298;50.900;4.648;2022-09-28T05:43:43;7.00;97.10
26687;DHT22;14298;50.900;4.648;2022-09-28T05:46:12;7.00;97.10
26687;DHT22;14298;50.900;4.648;2022-09-28T05:48:40;7.00;97.10
26687;DHT22;14298;50.900;4.648;2022-09-28T05:51:09;7.00;97.10
26687;DHT22;14298;50.900;4.648;2022-09-28T05:53:38;7.00;97.10
26687;DHT22;14298;50.900;4.648;2022-09-28T05:56:06;7.00;97.10
26687;DHT22;14298;50.900;4.648;2022-09-28T05:58:35;7.00;97.10
26687;DHT22;14298;50.900;4.648;2022-09-28T06:01:03;7.00;97.10
26687;DHT22;14298;50.900;4.648;2022-09-28T06:03:51;7.00;97.10
26687;DHT22;14298;50.900;4.648;2022-09-28T06:06:20;7.00;97.10
26687;DHT22;14298;50.900;4.648;2022-09-28T06:08:48;7.00;97.10
26687;DHT22;14298;50.900;4.648;2022-09-28T06:11:17;7.10;97.10
26687;DHT22;14298;50.900;4.648;2022-09-28T06:13:46;7.10;97.10
26687;DHT22;14298;50.900;4.648;2022-09-28T06:16:14;7.10;97.10
26687;DHT22;14298;50.900;4.648;2022-09-28T06:18:43;7.20;97.10
26687;DHT22;14298;50.900;4.648;2022-09-28T06:21:13;7.30;97.10
26687;DHT22;14298;50.900;4.648;2022-09-28T06:23:41;7.30;97.10
26687;DHT22;14298;50.900;4.648;2022-09-28T06:26:09;7.30;97.10
26687;DHT22;14298;50.900;4.648;2022-09-28T06:28:38;7.40;97.10
26687;DHT22;14298;50.900;4.648;2022-09-28T06:31:06;7.50;97.10
26687;DHT22;14298;50.900;4.648;2022-09-28T06:33:35;7.60;97.10
26687;DHT22;14298;50.900;4.648;2022-09-28T06:36:05;7.70;97.10
26687;DHT22;14298;50.900;4.648;2022-09-28T06:38:33;7.70;97.10
26687;DHT22;14298;50.900;4.648;2022-09-28T06:41:01;7.80;97.10
26687;DHT22;14298;50.900;4.648;2022-09-28T06:43:30;7.80;97.10
26687;DHT22;14298;50.900;4.648;2022-09-28T06:46:00;7.90;97.10
26687;DHT22;14298;50.900;4.648;2022-09-28T06:48:29;8.00;97.10
26687;DHT22;14298;50.900;4.648;2022-09-28T06:50:59;8.00;97.10
26687;DHT22;14298;50.900;4.648;2022-09-28T06:53:28;8.10;97.10
26687;DHT22;14298;50.900;4.648;2022-09-28T06:55:57;8.10;97.10
26687;DHT22;14298;50.900;4.648;2022-09-28T06:58:27;8.20;97.10
26687;DHT22;14298;50.900;4.648;2022-09-28T07:00:56;8.20;97.10
26687;DHT22;14298;50.900;4.648;2022-09-28T07:03:26;8.20;97.10
26687;DHT22;14298;50.900;4.648;2022-09-28T07:05:55;8.30;97.10
26687;DHT22;14298;50.900;4.648;2022-09-28T07:08:24;8.40;97.10
26687;DHT22;14298;50.900;4.648;2022-09-28T07:10:55;8.40;97.10
26687;DHT22;14298;50.900;4.648;2022-09-28T07:13:42;8.50;97.10
26687;DHT22;14298;50.900;4.648;2022-09-28T07:16:11;8.60;97.10
26687;DHT22;14298;50.900;4.648;2022-09-28T07:18:39;8.70;97.10
26687;DHT22;14298;50.900;4.648;2022-09-28T07:21:08;8.90;97.10
26687;DHT22;14298;50.900;4.648;2022-09-28T07:23:36;9.00;97.10
26687;DHT22;14298;50.900;4.648;2022-09-28T07:26:05;9.10;97.10
26687;DHT22;14298;50.900;4.648;2022-09-28T07:28:33;9.10;97.10
26687;DHT22;14298;50.900;4.648;2022-09-28T07:31:02;9.20;97.10
26687;DHT22;14298;50.900;4.648;2022-09-28T07:33:30;9.20;97.10
26687;DHT22;14298;50.900;4.648;2022-09-28T07:35:59;9.20;97.10
26687;DHT22;14298;50.900;4.648;2022-09-28T07:38:49;9.20;97.10
26687;DHT22;14298;50.900;4.648;2022-09-28T07:41:17;9.40;97.10
26687;DHT22;14298;50.900;4.648;2022-09-28T07:43:47;9.50;97.10
26687;DHT22;14298;50.900;4.648;2022-09-28T07:46:16;9.70;97.10
26687;DHT22;14298;50.900;4.648;2022-09-28T07:48:44;10.10;97.10
26687;DHT22;14298;50.900;4.648;2022-09-28T07:51:12;10.40;97.10
26687;DHT22;14298;50.900;4.648;2022-09-28T07:53:41;10.70;97.10
26687;DHT22;14298;50.900;4.648;2022-09-28T07:56:09;10.90;97.10
26687;DHT22;14298;50.900;4.648;2022-09-28T07:58:39;11.00;97.10
26687;DHT22;14298;50.900;4.648;2022-09-28T08:01:09;11.20;97.10
26687;DHT22;14298;50.900;4.648;2022-09-28T08:03:39;11.40;97.10
26687;DHT22;14298;50.900;4.648;2022-09-28T08:06:29;11.60;97.10
26687;DHT22;14298;50.900;4.648;2022-09-28T08:08:57;11.50;97.10
26687;DHT22;14298;50.900;4.648;2022-09-28T08:11:28;11.70;97.10
26687;DHT22;14298;50.900;4.648;2022-09-28T08:13:56;11.90;97.10
26687;DHT22;14298;50.900;4.648;2022-09-28T08:16:27;12.10;97.10
26687;DHT22;14298;50.900;4.648;2022-09-28T08:18:56;12.30;97.10
26687;DHT22;14298;50.900;4.648;2022-09-28T08:21:24;12.60;97.10
26687;DHT22;14298;50.900;4.648;2022-09-28T08:24:16;13.00;97.10
26687;DHT22;14298;50.900;4.648;2022-09-28T08:26:45;13.20;97.10
26687;DHT22;14298;50.900;4.648;2022-09-28T08:29:13;13.20;97.10
26687;DHT22;14298;50.900;4.648;2022-09-28T08:31:43;13.40;97.10
26687;DHT22;14298;50.900;4.648;2022-09-28T08:34:13;13.80;97.10
26687;DHT22;14298;50.900;4.648;2022-09-28T08:36:41;14.10;97.10
26687;DHT22;14298;50.900;4.648;2022-09-28T08:39:09;14.20;97.10
26687;DHT22;14298;50.900;4.648;2022-09-28T08:44:54;14.30;97.10
26687;DHT22;14298;50.900;4.648;2022-09-28T08:47:21;14.80;97.10
26687;DHT22;14298;50.900;4.648;2022-09-28T08:50:14;14.90;97.10
26687;DHT22;14298;50.900;4.648;2022-09-28T08:52:44;15.20;97.10
26687;DHT22;14298;50.900;4.648;2022-09-28T08:58:23;15.90;97.10
26687;DHT22;14298;50.900;4.648;2022-09-28T09:00:52;16.90;97.10
26687;DHT22;14298;50.900;4.648;2022-09-28T09:03:28;17.10;97.10
26687;DHT22;14298;50.900;4.648;2022-09-28T09:12:00;19.40;97.10
26687;DHT22;14298;50.900;4.648;2022-09-28T09:22:58;20.50;97.10
26687;DHT22;14298;50.900;4.648;2022-09-28T09:25:39;20.90;97.10
26687;DHT22;14298;50.900;4.648;2022-09-28T09:36:59;22.30;97.10
26687;DHT22;14298;50.900;4.648;2022-09-28T09:40:00;23.40;97.10
26687;DHT22;14298;50.900;4.648;2022-09-28T09:48:13;23.90;97.10
26687;DHT22;14298;50.900;4.648;2022-09-28T09:50:52;24.00;97.10
26687;DHT22;14298;50.900;4.648;2022-09-28T09:53:39;21.70;97.10
26687;DHT22;14298;50.900;4.648;2022-09-28T09:56:39;19.20;97.10
26687;DHT22;14298;50.900;4.648;2022-09-28T09:59:30;18.00;97.10
26687;DHT22;14298;50.900;4.648;2022-09-28T10:02:21;16.70;97.10
26687;DHT22;14298;50.900;4.648;2022-09-28T10:04:56;15.90;97.10
26687;DHT22;14298;50.900;4.648;2022-09-28T10:07:32;15.30;97.10
26687;DHT22;14298;50.900;4.648;2022-09-28T10:10:00;15.10;97.10
26687;DHT22;14298;50.900;4.648;2022-09-28T10:12:29;15.00;97.10
26687;DHT22;14298;50.900;4.648;2022-09-28T10:14:58;15.20;97.10
26687;DHT22;14298;50.900;4.648;2022-09-28T10:17:28;15.40;97.10
26687;DHT22;14298;50.900;4.648;2022-09-28T10:19:56;15.30;97.10
26687;DHT22;14298;50.900;4.648;2022-09-28T10:22:26;15.30;97.10
26687;DHT22;14298;50.900;4.648;2022-09-28T10:24:55;15.50;97.10
26687;DHT22;14298;50.900;4.648;2022-09-28T10:27:33;15.60;97.10
26687;DHT22;14298;50.900;4.648;2022-09-28T10:30:21;15.50;97.10
26687;DHT22;14298;50.900;4.648;2022-09-28T10:33:29;15.30;97.10
26687;DHT22;14298;50.900;4.648;2022-09-28T10:35:59;15.20;97.10
26687;DHT22;14298;50.900;4.648;2022-09-28T10:38:29;15.30;97.10
26687;DHT22;14298;50.900;4.648;2022-09-28T10:41:00;15.50;97.10
26687;DHT22;14298;50.900;4.648;2022-09-28T10:46:39;15.20;97.10
26687;DHT22;14298;50.900;4.648;2022-09-28T10:51:56;15.20;97.10
26687;DHT22;14298;50.900;4.648;2022-09-28T10:57:33;14.70;97.10
26687;DHT22;14298;50.900;4.648;2022-09-28T10:59:57;14.50;97.10
26687;DHT22;14298;50.900;4.648;2022-09-28T11:02:35;14.50;97.10
26687;DHT22;14298;50.900;4.648;2022-09-28T11:05:03;14.50;97.10
26687;DHT22;14298;50.900;4.648;2022-09-28T11:07:33;14.80;97.10
26687;DHT22;14298;50.900;4.648;2022-09-28T11:10:02;15.00;97.10
26687;DHT22;14298;50.900;4.648;2022-09-28T11:12:37;15.10;97.10
26687;DHT22;14298;50.900;4.648;2022-09-28T11:15:12;14.80;97.10
26687;DHT22;14298;50.900;4.648;2022-09-28T11:17:38;14.60;97.10
26687;DHT22;14298;50.900;4.648;2022-09-28T11:23:17;13.80;97.10
26687;DHT22;14298;50.900;4.648;2022-09-28T11:25:29;13.10;97.10
26687;DHT22;14298;50.900;4.648;2022-09-28T11:28:02;12.70;97.10
26687;DHT22;14298;50.900;4.648;2022-09-28T11:30:36;12.60;97.10
26687;DHT22;14298;50.900;4.648;2022-09-28T11:33:11;12.40;97.10
26687;DHT22;14298;50.900;4.648;2022-09-28T11:39:52;12.30;97.10
26687;DHT22;14298;50.900;4.648;2022-09-28T11:49:52;12.40;97.10
26687;DHT22;14298;50.900;4.648;2022-09-28T11:52:24;12.60;97.10
26687;DHT22;14298;50.900;4.648;2022-09-28T11:55:00;12.70;97.10
26687;DHT22;14298;50.900;4.648;2022-09-28T12:00:21;13.20;97.10
26687;DHT22;14298;50.900;4.648;2022-09-28T12:03:20;13.40;97.10
26687;DHT22;14298;50.900;4.648;2022-09-28T12:06:04;13.60;97.10
26687;DHT22;14298;50.900;4.648;2022-09-28T12:08:31;13.80;97.10
26687;DHT22;14298;50.900;4.648;2022-09-28T12:17:33;14.10;97.10
26687;DHT22;14298;50.900;4.648;2022-09-28T12:23:23;14.30;97.10
26687;DHT22;14298;50.900;4.648;2022-09-28T12:25:57;14.50;97.10
26687;DHT22;14298;50.900;4.648;2022-09-28T12:28:47;14.80;97.10
26687;DHT22;14298;50.900;4.648;2022-09-28T12:31:31;15.10;97.10
26687;DHT22;14298;50.900;4.648;2022-09-28T12:33:54;15.20;97.10
26687;DHT22;14298;50.900;4.648;2022-09-28T12:37:01;15.20;97.10
26687;DHT22;14298;50.900;4.648;2022-09-28T12:51:33;14.80;97.10
26687;DHT22;14298;50.900;4.648;2022-09-28T13:00:23;14.20;97.10
26687;DHT22;14298;50.900;4.648;2022-09-28T13:09:26;13.70;97.10
26687;DHT22;14298;50.900;4.648;2022-09-28T13:23:38;13.90;97.10
26687;DHT22;14298;50.900;4.648;2022-09-28T13:26:29;14.10;97.10
26687;DHT22;14298;50.900;4.648;2022-09-28T13:29:00;14.10;97.10
26687;DHT22;14298;50.900;4.648;2022-09-28T13:31:30;13.90;97.10
26687;DHT22;14298;50.900;4.648;2022-09-28T13:34:01;13.80;97.10
26687;DHT22;14298;50.900;4.648;2022-09-28T13:39:13;13.70;97.10
26687;DHT22;14298;50.900;4.648;2022-09-28T13:41:35;13.70;97.10
26687;DHT22;14298;50.900;4.648;2022-09-28T13:52:56;14.60;97.10
26687;DHT22;14298;50.900;4.648;2022-09-28T14:01:17;15.30;97.10
26687;DHT22;14298;50.900;4.648;2022-09-28T14:07:53;15.20;97.10
26687;DHT22;14298;50.900;4.648;2022-09-28T14:12:49;15.00;97.10
26687;DHT22;14298;50.900;4.648;2022-09-28T14:23:36;14.20;97.10
26687;DHT22;14298;50.900;4.648;2022-09-28T14:26:30;14.10;97.10
26687;DHT22;14298;50.900;4.648;2022-09-28T14:31:39;13.90;97.10
26687;DHT22;14298;50.900;4.648;2022-09-28T14:34:21;13.90;97.10
26687;DHT22;14298;50.900;4.648;2022-09-28T14:36:41;14.00;97.10
26687;DHT22;14298;50.900;4.648;2022-09-28T14:39:49;14.00;97.10
26687;DHT22;14298;50.900;4.648;2022-09-28T14:42:36;13.90;97.10
26687;DHT22;14298;50.900;4.648;2022-09-28T14:47:39;13.70;97.10
26687;DHT22;14298;50.900;4.648;2022-09-28T14:50:24;13.60;97.10
26687;DHT22;14298;50.900;4.648;2022-09-28T14:52:55;13.70;97.10
26687;DHT22;14298;50.900;4.648;2022-09-28T14:58:26;13.90;97.10
26687;DHT22;14298;50.900;4.648;2022-09-28T15:01:06;14.10;97.10
26687;DHT22;14298;50.900;4.648;2022-09-28T15:03:32;14.10;97.10
26687;DHT22;14298;50.900;4.648;2022-09-28T15:06:02;14.20;97.10
26687;DHT22;14298;50.900;4.648;2022-09-28T15:08:38;14.30;97.10
26687;DHT22;14298;50.900;4.648;2022-09-28T15:11:12;14.50;97.10
26687;DHT22;14298;50.900;4.648;2022-09-28T15:14:07;14.70;97.10
26687;DHT22;14298;50.900;4.648;2022-09-28T15:16:37;14.80;97.10
26687;DHT22;14298;50.900;4.648;2022-09-28T15:19:26;14.90;97.10
26687;DHT22;14298;50.900;4.648;2022-09-28T15:21:53;14.90;97.10
26687;DHT22;14298;50.900;4.648;2022-09-28T15:24:32;14.70;97.10
26687;DHT22;14298;50.900;4.648;2022-09-28T15:27:09;14.60;97.10
26687;DHT22;14298;50.900;4.648;2022-09-28T15:29:32;14.60;97.10
26687;DHT22;14298;50.900;4.648;2022-09-28T15:32:01;14.60;97.10
26687;DHT22;14298;50.900;4.648;2022-09-28T15:34:33;14.60;97.10
26687;DHT22;14298;50.900;4.648;2022-09-28T15:37:26;14.60;97.10
26687;DHT22;14298;50.900;4.648;2022-09-28T15:43:22;14.50;97.10
26687;DHT22;14298;50.900;4.648;2022-09-28T15:45:58;14.50;97.10
26687;DHT22;14298;50.900;4.648;2022-09-28T15:51:51;14.30;97.10
26687;DHT22;14298;50.900;4.648;2022-09-28T15:54:19;14.30;97.10
26687;DHT22;14298;50.900;4.648;2022-09-28T15:57:09;14.20;97.10
26687;DHT22;14298;50.900;4.648;2022-09-28T15:59:37;14.10;97.10
26687;DHT22;14298;50.900;4.648;2022-09-28T16:02:13;13.90;97.10
26687;DHT22;14298;50.900;4.648;2022-09-28T16:04:49;13.90;97.10
26687;DHT22;14298;50.900;4.648;2022-09-28T16:07:39;13.90;97.10
26687;DHT22;14298;50.900;4.648;2022-09-28T16:12:48;13.50;97.10
26687;DHT22;14298;50.900;4.648;2022-09-28T16:15:42;13.40;97.10
26687;DHT22;14298;50.900;4.648;2022-09-28T16:18:16;13.40;97.10
26687;DHT22;14298;50.900;4.648;2022-09-28T16:20:50;13.30;97.10
26687;DHT22;14298;50.900;4.648;2022-09-28T16:23:30;13.10;97.10
26687;DHT22;14298;50.900;4.648;2022-09-28T16:26:37;13.00;97.10
26687;DHT22;14298;50.900;4.648;2022-09-28T16:29:07;13.00;97.10
26687;DHT22;14298;50.900;4.648;2022-09-28T16:31:54;13.00;97.10
26687;DHT22;14298;50.900;4.648;2022-09-28T16:34:24;13.00;97.10
26687;DHT22;14298;50.900;4.648;2022-09-28T16:36:54;13.00;97.10
26687;DHT22;14298;50.900;4.648;2022-09-28T16:39:23;13.10;97.10
26687;DHT22;14298;50.900;4.648;2022-09-28T16:41:54;13.10;97.10
26687;DHT22;14298;50.900;4.648;2022-09-28T16:44:24;13.10;97.10
26687;DHT22;14298;50.900;4.648;2022-09-28T16:46:56;13.10;97.10
26687;DHT22;14298;50.900;4.648;2022-09-28T16:49:27;13.10;97.10
26687;DHT22;14298;50.900;4.648;2022-09-28T16:51:58;13.00;97.10
26687;DHT22;14298;50.900;4.648;2022-09-28T16:54:28;13.00;97.10
26687;DHT22;14298;50.900;4.648;2022-09-28T16:57:15;13.00;97.10
26687;DHT22;14298;50.900;4.648;2022-09-28T16:59:44;13.00;97.10
26687;DHT22;14298;50.900;4.648;2022-09-28T17:02:17;12.90;97.10
26687;DHT22;14298;50.900;4.648;2022-09-28T17:04:46;12.70;97.10
26687;DHT22;14298;50.900;4.648;2022-09-28T17:07:14;12.50;97.10
26687;DHT22;14298;50.900;4.648;2022-09-28T17:09:43;12.30;97.10
26687;DHT22;14298;50.900;4.648;2022-09-28T17:12:17;12.10;97.10
26687;DHT22;14298;50.900;4.648;2022-09-28T17:14:45;11.90;97.10
26687;DHT22;14298;50.900;4.648;2022-09-28T17:17:13;11.70;97.10
26687;DHT22;14298;50.900;4.648;2022-09-28T17:19:42;11.50;97.10
26687;DHT22;14298;50.900;4.648;2022-09-28T17:22:10;11.30;97.10
26687;DHT22;14298;50.900;4.648;2022-09-28T17:24:40;11.20;97.10
26687;DHT22;14298;50.900;4.648;2022-09-28T17:27:10;11.10;97.10
26687;DHT22;14298;50.900;4.648;2022-09-28T17:29:40;10.90;97.10
26687;DHT22;14298;50.900;4.648;2022-09-28T17:32:16;10.80;97.10
26687;DHT22;14298;50.900;4.648;2022-09-28T17:34:39;10.60;97.10
26687;DHT22;14298;50.900;4.648;2022-09-28T17:37:10;10.50;97.10
26687;DHT22;14298;50.900;4.648;2022-09-28T17:39:39;10.40;97.10
26687;DHT22;14298;50.900;4.648;2022-09-28T17:42:08;10.40;97.10
26687;DHT22;14298;50.900;4.648;2022-09-28T17:44:36;10.20;97.10
26687;DHT22;14298;50.900;4.648;2022-09-28T17:47:04;10.10;97.10
26687;DHT22;14298;50.900;4.648;2022-09-28T17:49:34;10.00;97.10
26687;DHT22;14298;50.900;4.648;2022-09-28T17:52:02;9.90;97.10
26687;DHT22;14298;50.900;4.648;2022-09-28T17:54:31;9.80;97.10
26687;DHT22;14298;50.900;4.648;2022-09-28T17:57:00;9.80;97.10
26687;DHT22;14298;50.900;4.648;2022-09-28T17:59:28;9.80;97.10
26687;DHT22;14298;50.900;4.648;2022-09-28T18:01:57;9.70;97.10
26687;DHT22;14298;50.900;4.648;2022-09-28T18:04:25;9.60;97.10
26687;DHT22;14298;50.900;4.648;2022-09-28T18:06:54;9.50;97.10
26687;DHT22;14298;50.900;4.648;2022-09-28T18:09:22;9.40;97.10
26687;DHT22;14298;50.900;4.648;2022-09-28T18:11:59;9.30;97.10
26687;DHT22;14298;50.900;4.648;2022-09-28T18:14:47;9.30;97.10
26687;DHT22;14298;50.900;4.648;2022-09-28T18:17:15;9.20;97.10
26687;DHT22;14298;50.900;4.648;2022-09-28T18:19:44;9.20;97.10
26687;DHT22;14298;50.900;4.648;2022-09-28T18:22:12;9.10;97.10
26687;DHT22;14298;50.900;4.648;2022-09-28T18:24:41;9.10;97.10
26687;DHT22;14298;50.900;4.648;2022-09-28T18:27:09;9.10;97.10
26687;DHT22;14298;50.900;4.648;2022-09-28T18:29:37;9.00;97.10
26687;DHT22;14298;50.900;4.648;2022-09-28T18:32:06;9.00;97.10
26687;DHT22;14298;50.900;4.648;2022-09-28T18:34:35;8.90;97.10
26687;DHT22;14298;50.900;4.648;2022-09-28T18:37:04;8.90;97.10
26687;DHT22;14298;50.900;4.648;2022-09-28T18:39:34;8.80;97.10
26687;DHT22;14298;50.900;4.648;2022-09-28T18:42:05;8.70;97.10
26687;DHT22;14298;50.900;4.648;2022-09-28T18:44:32;8.70;97.10
26687;DHT22;14298;50.900;4.648;2022-09-28T18:47:01;8.70;97.10
26687;DHT22;14298;50.900;4.648;2022-09-28T18:49:30;8.60;97.10
26687;DHT22;14298;50.900;4.648;2022-09-28T18:52:00;8.60;97.10
26687;DHT22;14298;50.900;4.648;2022-09-28T18:54:28;8.50;97.10
26687;DHT22;14298;50.900;4.648;2022-09-28T18:56:57;8.50;97.10
26687;DHT22;14298;50.900;4.648;2022-09-28T18:59:25;8.50;97.10
26687;DHT22;14298;50.900;4.648;2022-09-28T19:01:53;8.40;97.10
26687;DHT22;14298;50.900;4.648;2022-09-28T19:04:22;8.40;97.10
26687;DHT22;14298;50.900;4.648;2022-09-28T19:06:50;8.40;97.10
26687;DHT22;14298;50.900;4.648;2022-09-28T19:09:22;8.30;97.10
26687;DHT22;14298;50.900;4.648;2022-09-28T19:11:52;8.30;97.10
26687;DHT22;14298;50.900;4.648;2022-09-28T19:14:21;8.30;97.10